createdAt,value
2022-08-18T00:01:49.440Z,16.48
2022-08-18T00:04:48.450Z,16.42
2022-08-18T00:07:53.777Z,16.35
2022-08-18T00:10:23.973Z,15.45
2022-08-18T00:13:04.033Z,15.45
2022-08-18T00:15:42.223Z,16.10
2022-08-18T00:18:26.106Z,15.75
2022-08-18T00:20:55.601Z,15.85
2022-08-18T00:23:32.721Z,16.08
2022-08-18T00:26:01.609Z,16.40
2022-08-18T00:28:31.489Z,21.80
2022-08-18T00:31:00.533Z,21.63
2022-08-18T00:33:54.529Z,17.10
2022-08-18T00:36:31.719Z,16.00
2022-08-18T00:39:50.570Z,15.70
2022-08-18T00:46:45.606Z,17.10
2022-08-18T00:49:20.577Z,16.05
2022-08-18T00:55:34.377Z,16.52
2022-08-18T01:01:54.728Z,16.58
2022-08-18T01:04:54.668Z,17.35
2022-08-18T01:07:33.972Z,16.48
2022-08-18T01:14:38.343Z,17.70
2022-08-18T01:21:17.205Z,18.02
2022-08-18T01:23:50.379Z,17.45
2022-08-18T01:26:21.854Z,17.52
2022-08-18T01:28:51.382Z,17.10
2022-08-18T01:31:38.210Z,17.98
2022-08-18T01:34:23.472Z,16.60
2022-08-18T01:36:55.515Z,17.58
2022-08-18T01:41:23.601Z,17.95
2022-08-18T01:42:25.302Z,17.52
2022-08-18T01:44:53.363Z,17.30
2022-08-18T01:47:22.528Z,17.25
2022-08-18T01:49:53.489Z,18.15
2022-08-18T01:52:23.399Z,17.63
2022-08-18T01:54:58.839Z,18.00
2022-08-18T01:57:27.695Z,17.85
2022-08-18T01:59:56.540Z,17.27
2022-08-18T02:02:29.403Z,17.67
2022-08-18T02:05:03.570Z,18.17
2022-08-18T02:07:37.473Z,17.05
2022-08-18T02:10:12.131Z,17.63
2022-08-18T02:12:47.545Z,17.75
2022-08-18T02:15:18.289Z,18.90
2022-08-18T02:18:09.955Z,18.42
2022-08-18T02:20:46.904Z,18.33
2022-08-18T02:23:53.190Z,18.38
2022-08-18T02:26:25.032Z,18.08
2022-08-18T02:28:53.654Z,17.95
2022-08-18T02:31:32.909Z,17.83
2022-08-18T02:34:01.415Z,19.45
2022-08-18T02:36:30.519Z,18.30
2022-08-18T02:39:00.229Z,17.48
2022-08-18T02:41:31.348Z,17.05
2022-08-18T02:44:04.875Z,17.67
2022-08-18T02:46:33.539Z,17.45
2022-08-18T02:49:09.008Z,17.67
2022-08-18T02:51:38.835Z,18.20
2022-08-18T02:54:12.305Z,17.73
2022-08-18T02:56:46.694Z,17.92
2022-08-18T02:59:20.284Z,18.10
2022-08-18T03:01:56.631Z,17.73
2022-08-18T03:04:32.734Z,17.98
2022-08-18T03:07:03.280Z,17.13
2022-08-18T03:09:36.376Z,17.90
2022-08-18T03:12:11.547Z,16.77
2022-08-18T03:14:41.002Z,18.50
2022-08-18T03:17:10.329Z,17.70
2022-08-18T03:19:38.611Z,17.65
2022-08-18T03:22:27.568Z,17.58
2022-08-18T03:25:01.558Z,17.60
2022-08-18T03:27:33.067Z,17.70
2022-08-18T03:30:03.236Z,17.98
2022-08-18T03:32:31.682Z,18.00
2022-08-18T03:35:00.862Z,17.88
2022-08-18T03:37:28.900Z,17.92
2022-08-18T03:40:00.652Z,17.85
2022-08-18T03:42:29.566Z,17.40
2022-08-18T03:44:58.985Z,17.45
2022-08-18T03:47:28.472Z,18.05
2022-08-18T03:50:00.770Z,18.65
2022-08-18T03:52:29.449Z,18.42
2022-08-18T03:54:57.453Z,17.98
2022-08-18T03:57:25.701Z,17.73
2022-08-18T03:59:54.928Z,18.23
2022-08-18T04:02:25.568Z,17.83
2022-08-18T04:04:53.686Z,18.38
2022-08-18T04:07:21.690Z,17.27
2022-08-18T04:09:53.818Z,18.25
2022-08-18T04:12:22.500Z,17.55
2022-08-18T04:14:53.614Z,17.27
2022-08-18T04:17:25.318Z,17.73
2022-08-18T04:19:53.901Z,17.25
2022-08-18T04:22:22.692Z,17.38
2022-08-18T04:24:51.132Z,17.13
2022-08-18T04:27:21.581Z,16.55
2022-08-18T04:29:49.955Z,17.00
2022-08-18T04:32:19.425Z,16.30
2022-08-18T04:34:48.976Z,17.23
2022-08-18T04:37:17.599Z,16.20
2022-08-18T04:39:48.658Z,16.38
2022-08-18T04:42:17.567Z,17.02
2022-08-18T04:44:45.768Z,16.90
2022-08-18T04:47:17.618Z,15.55
2022-08-18T04:49:46.234Z,15.75
2022-08-18T04:52:40.710Z,16.55
2022-08-18T04:55:13.596Z,15.68
2022-08-18T04:57:42.640Z,16.40
2022-08-18T05:00:13.812Z,16.58
2022-08-18T05:02:42.468Z,16.17
2022-08-18T05:05:11.605Z,16.17
2022-08-18T05:07:47.908Z,16.35
2022-08-18T05:10:18.590Z,17.33
2022-08-18T05:12:48.962Z,16.38
2022-08-18T05:15:18.858Z,17.58
2022-08-18T05:17:47.639Z,16.52
2022-08-18T05:20:20.920Z,18.13
2022-08-18T05:22:51.588Z,17.42
2022-08-18T05:25:23.851Z,17.45
2022-08-18T05:27:52.735Z,17.13
2022-08-18T05:30:21.224Z,18.05
2022-08-18T05:32:51.680Z,18.40
2022-08-18T05:35:26.348Z,18.20
2022-08-18T05:38:14.545Z,20.35
2022-08-18T05:40:47.698Z,19.60
2022-08-18T05:43:18.162Z,19.13
2022-08-18T05:45:49.665Z,20.25
2022-08-18T05:48:18.664Z,20.40
2022-08-18T05:50:47.628Z,19.25
2022-08-18T05:53:20.732Z,19.50
2022-08-18T05:56:16.244Z,19.30
2022-08-18T05:58:48.687Z,19.88
2022-08-18T06:01:22.628Z,20.17
2022-08-18T06:03:55.676Z,20.70
2022-08-18T06:06:29.666Z,20.27
2022-08-18T06:09:07.536Z,21.77
2022-08-18T06:11:37.444Z,22.15
2022-08-18T06:14:06.054Z,22.98
2022-08-18T06:16:47.665Z,23.92
2022-08-18T06:19:34.560Z,22.30
2022-08-18T06:22:15.604Z,23.70
2022-08-18T06:24:54.623Z,20.58
2022-08-18T06:27:32.569Z,20.73
2022-08-18T06:30:10.927Z,20.85
2022-08-18T06:32:56.829Z,19.65
2022-08-18T06:35:34.863Z,19.30
2022-08-18T06:38:33.139Z,21.00
2022-08-18T06:41:40.982Z,17.17
2022-08-18T06:44:03.783Z,19.92
2022-08-18T06:46:42.590Z,19.83
2022-08-18T06:49:13.703Z,17.17
2022-08-18T06:51:42.439Z,17.90
2022-08-18T06:54:29.438Z,17.50
2022-08-18T06:56:59.962Z,15.35
2022-08-18T06:59:36.537Z,16.55
2022-08-18T07:02:20.582Z,13.68
2022-08-18T07:05:09.090Z,13.75
2022-08-18T07:07:40.565Z,14.20
2022-08-18T07:10:31.754Z,12.48
2022-08-18T07:13:25.649Z,12.50
2022-08-18T07:15:55.750Z,12.38
2022-08-18T07:18:28.600Z,11.68
2022-08-18T07:21:00.687Z,10.27
2022-08-18T07:23:34.994Z,9.95
2022-08-18T07:26:10.449Z,10.63
2022-08-18T07:28:44.334Z,10.40
2022-08-18T07:31:21.607Z,9.73
2022-08-18T07:33:57.633Z,9.93
2022-08-18T07:36:33.569Z,9.55
2022-08-18T07:39:08.743Z,11.75
2022-08-18T07:41:53.732Z,9.40
2022-08-18T07:44:28.619Z,9.13
2022-08-18T07:47:01.153Z,8.93
2022-08-18T07:49:36.157Z,8.48
2022-08-18T07:52:14.617Z,9.10
2022-08-18T07:55:06.773Z,8.50
2022-08-18T07:57:48.920Z,8.63
2022-08-18T08:00:41.145Z,9.32
2022-08-18T08:03:26.742Z,8.88
2022-08-18T08:06:04.320Z,8.80
2022-08-18T08:08:38.675Z,8.73
2022-08-18T08:11:18.038Z,12.63
2022-08-18T08:13:59.178Z,22.95
2022-08-18T08:16:40.699Z,9.30
2022-08-18T08:19:58.502Z,8.73
2022-08-18T08:22:25.657Z,8.35
2022-08-18T08:25:02.749Z,8.10
2022-08-18T08:27:54.155Z,8.77
2022-08-18T08:30:26.764Z,8.27
2022-08-18T08:33:12.846Z,7.88
2022-08-18T08:35:50.411Z,8.07
2022-08-18T08:38:42.802Z,8.15
2022-08-18T08:41:16.855Z,8.65
2022-08-18T08:43:49.500Z,8.63
2022-08-18T08:46:23.669Z,8.13
2022-08-18T08:49:00.838Z,8.00
2022-08-18T08:51:38.746Z,9.52
2022-08-18T08:54:18.103Z,11.05
2022-08-18T08:56:48.767Z,10.35
2022-08-18T08:59:21.792Z,9.57
2022-08-18T09:02:00.753Z,8.48
2022-08-18T09:04:54.194Z,8.73
2022-08-18T09:07:49.750Z,8.63
2022-08-18T09:10:49.870Z,8.93
2022-08-18T09:13:42.695Z,7.80
2022-08-18T09:16:22.747Z,8.55
2022-08-18T09:19:15.961Z,8.25
2022-08-18T09:21:51.946Z,9.63
2022-08-18T09:24:31.162Z,8.30
2022-08-18T09:27:18.997Z,8.52
2022-08-18T09:29:57.502Z,8.15
2022-08-18T09:32:44.593Z,7.68
2022-08-18T09:35:46.794Z,7.88
2022-08-18T09:38:45.425Z,7.97
2022-08-18T09:41:35.360Z,7.55
2022-08-18T09:44:21.708Z,8.13
2022-08-18T09:47:00.819Z,7.70
2022-08-18T09:49:53.143Z,7.32
2022-08-18T09:52:49.839Z,6.57
2022-08-18T09:55:59.285Z,6.63
2022-08-18T09:58:54.934Z,7.18
2022-08-18T10:01:40.730Z,7.15
2022-08-18T10:04:33.831Z,6.85
2022-08-18T10:07:43.475Z,7.20
2022-08-18T10:11:00.922Z,6.60
2022-08-18T10:13:21.558Z,6.40
2022-08-18T10:16:12.802Z,6.72
2022-08-18T10:18:57.713Z,7.10
2022-08-18T10:21:31.296Z,6.82
2022-08-18T10:24:36.202Z,6.40
2022-08-18T10:30:02.313Z,6.10
2022-08-18T10:32:52.175Z,6.03
2022-08-18T10:35:53.837Z,6.63
2022-08-18T10:38:39.915Z,7.28
2022-08-18T10:41:23.767Z,6.53
2022-08-18T10:43:55.838Z,6.30
2022-08-18T10:46:32.967Z,6.57
2022-08-18T10:49:21.448Z,6.50
2022-08-18T10:52:21.232Z,6.55
2022-08-18T10:55:10.970Z,7.38
2022-08-18T10:58:03.891Z,6.05
2022-08-18T11:00:44.858Z,5.93
2022-08-18T11:03:52.313Z,5.85
2022-08-18T11:06:21.483Z,6.05
2022-08-18T11:11:52.822Z,6.13
2022-08-18T11:14:41.961Z,6.43
2022-08-18T11:17:18.925Z,5.95
2022-08-18T11:19:50.905Z,6.00
2022-08-18T11:22:32.037Z,5.90
2022-08-18T11:25:03.865Z,5.65
2022-08-18T11:27:36.332Z,5.38
2022-08-18T11:30:07.044Z,5.10
2022-08-18T11:33:03.299Z,5.63
2022-08-18T11:35:38.207Z,5.38
2022-08-18T11:38:20.927Z,5.25
2022-08-18T11:41:13.618Z,5.53
2022-08-18T11:43:47.406Z,5.05
2022-08-18T11:46:29.695Z,4.95
2022-08-18T11:49:01.911Z,6.07
2022-08-18T11:51:34.601Z,6.00
2022-08-18T11:54:23.478Z,5.63
2022-08-18T11:56:54.967Z,6.38
2022-08-18T12:02:28.089Z,5.97
2022-08-18T12:05:10.276Z,5.50
2022-08-18T12:10:33.970Z,6.28
2022-08-18T12:13:02.971Z,6.70
2022-08-18T12:15:43.801Z,5.95
2022-08-18T12:18:28.560Z,5.90
2022-08-18T12:20:58.809Z,6.25
2022-08-18T12:23:39.163Z,6.43
2022-08-18T12:29:11.110Z,5.15
2022-08-18T12:34:29.508Z,5.45
2022-08-18T12:37:01.823Z,5.78
2022-08-18T12:39:32.424Z,5.70
2022-08-18T12:42:04.880Z,6.05
2022-08-18T12:44:35.460Z,5.35
2022-08-18T12:47:09.295Z,6.30
2022-08-18T12:49:39.336Z,5.82
2022-08-18T12:52:08.959Z,5.55
2022-08-18T12:54:55.188Z,6.10
2022-08-18T12:57:51.787Z,5.85
2022-08-18T13:00:27.846Z,5.43
2022-08-18T13:02:57.412Z,5.55
2022-08-18T13:05:27.514Z,5.68
2022-08-18T13:07:58.094Z,5.20
2022-08-18T13:10:42.969Z,5.00
2022-08-18T13:13:22.006Z,5.47
2022-08-18T13:15:58.246Z,5.50
2022-08-18T13:18:31.150Z,5.18
2022-08-18T13:20:59.866Z,5.25
2022-08-18T13:23:29.129Z,5.60
2022-08-18T13:26:02.136Z,5.45
2022-08-18T13:28:36.182Z,5.88
2022-08-18T13:31:23.986Z,5.75
2022-08-18T13:33:59.397Z,5.47
2022-08-18T13:36:44.415Z,5.00
2022-08-18T13:39:16.982Z,4.57
2022-08-18T13:41:46.295Z,5.10
2022-08-18T13:44:19.934Z,4.90
2022-08-18T13:46:50.035Z,4.57
2022-08-18T13:49:29.032Z,4.53
2022-08-18T13:52:05.574Z,4.78
2022-08-18T13:54:41.081Z,4.32
2022-08-18T13:57:11.308Z,5.55
2022-08-18T13:59:46.719Z,4.60
2022-08-18T14:02:18.136Z,4.47
2022-08-18T14:04:48.288Z,4.72
2022-08-18T14:07:27.278Z,4.25
2022-08-18T14:09:56.840Z,4.25
2022-08-18T14:12:30.986Z,4.93
2022-08-18T14:15:02.995Z,4.53
2022-08-18T14:17:32.007Z,4.25
2022-08-18T14:20:21.708Z,4.10
2022-08-18T14:23:11.857Z,4.15
2022-08-18T14:25:59.672Z,4.22
2022-08-18T14:28:29.069Z,4.55
2022-08-18T14:31:00.905Z,4.13
2022-08-18T14:33:49.824Z,4.13
2022-08-18T14:36:19.423Z,4.78
2022-08-18T14:38:51.454Z,4.55
2022-08-18T14:41:25.670Z,4.50
2022-08-18T14:44:12.254Z,4.28
2022-08-18T14:46:47.486Z,4.30
2022-08-18T14:49:28.698Z,4.70
2022-08-18T14:51:58.440Z,4.32
2022-08-18T14:54:28.602Z,4.30
2022-08-18T14:57:03.085Z,5.05
2022-08-18T14:59:37.847Z,4.75
2022-08-18T15:02:13.542Z,4.80
2022-08-18T15:04:53.232Z,4.70
2022-08-18T15:07:25.054Z,4.32
2022-08-18T15:10:14.913Z,4.55
2022-08-18T15:12:42.746Z,4.60
2022-08-18T15:15:18.255Z,4.95
2022-08-18T15:17:52.796Z,4.30
2022-08-18T15:20:28.793Z,4.93
2022-08-18T15:23:24.731Z,5.00
2022-08-18T15:25:58.945Z,5.20
2022-08-18T15:28:28.060Z,5.10
2022-08-18T15:33:51.114Z,5.35
2022-08-18T15:36:28.944Z,5.10
2022-08-18T15:38:58.054Z,4.95
2022-08-18T15:41:33.089Z,5.07
2022-08-18T15:44:04.165Z,5.10
2022-08-18T15:46:38.181Z,5.20
2022-08-18T15:49:15.095Z,5.90
2022-08-18T15:51:47.637Z,4.80
2022-08-18T15:54:19.570Z,4.93
2022-08-18T15:56:57.755Z,5.43
2022-08-18T15:59:33.190Z,5.07
2022-08-18T16:02:07.304Z,5.40
2022-08-18T16:04:44.880Z,5.28
2022-08-18T16:07:13.955Z,4.90
2022-08-18T16:09:42.240Z,4.95
2022-08-18T16:12:11.168Z,5.40
2022-08-18T16:14:40.194Z,5.13
2022-08-18T16:17:09.434Z,5.35
2022-08-18T16:19:47.609Z,4.80
2022-08-18T16:22:17.385Z,6.80
2022-08-18T16:24:46.173Z,5.72
2022-08-18T16:27:24.103Z,5.82
2022-08-18T16:29:56.895Z,5.38
2022-08-18T16:32:26.005Z,5.38
2022-08-18T16:34:56.103Z,5.28
2022-08-18T16:37:24.734Z,5.70
2022-08-18T16:39:53.186Z,5.05
2022-08-18T16:42:22.980Z,5.55
2022-08-18T16:44:51.998Z,5.70
2022-08-18T16:47:21.084Z,5.65
2022-08-18T16:49:51.300Z,5.22
2022-08-18T16:52:21.494Z,10.40
2022-08-18T16:54:57.625Z,8.00
2022-08-18T16:57:53.293Z,8.50
2022-08-18T17:00:40.840Z,6.15
2022-08-18T17:03:27.408Z,6.30
2022-08-18T17:06:01.099Z,7.13
2022-08-18T17:08:34.256Z,6.93
2022-08-18T17:11:02.706Z,7.22
2022-08-18T17:13:31.492Z,6.70
2022-08-18T17:16:00.996Z,6.22
2022-08-18T17:18:29.761Z,7.00
2022-08-18T17:20:58.042Z,6.65
2022-08-18T17:23:30.117Z,7.00
2022-08-18T17:25:59.258Z,6.72
2022-08-18T17:28:39.608Z,6.07
2022-08-18T17:31:14.242Z,6.70
2022-08-18T17:33:47.101Z,6.88
2022-08-18T17:36:22.195Z,6.78
2022-08-18T17:39:00.028Z,6.53
2022-08-18T17:41:30.046Z,7.13
2022-08-18T17:44:04.272Z,6.82
2022-08-18T17:46:42.997Z,6.88
2022-08-18T17:49:16.156Z,6.93
2022-08-18T17:51:55.200Z,7.50
2022-08-18T17:54:32.397Z,6.72
2022-08-18T17:57:05.586Z,7.28
2022-08-18T17:59:51.164Z,7.38
2022-08-18T18:02:29.535Z,7.38
2022-08-18T18:05:02.515Z,7.20
2022-08-18T18:07:33.882Z,7.47
2022-08-18T18:10:06.167Z,7.13
2022-08-18T18:12:39.245Z,7.22
2022-08-18T18:15:11.865Z,7.45
2022-08-18T18:17:42.061Z,7.18
2022-08-18T18:20:17.170Z,7.70
2022-08-18T18:22:50.359Z,7.80
2022-08-18T18:25:35.490Z,7.97
2022-08-18T18:28:04.652Z,7.30
2022-08-18T18:30:33.524Z,7.43
2022-08-18T18:33:08.199Z,7.38
2022-08-18T18:35:54.803Z,7.78
2022-08-18T18:38:30.196Z,7.40
2022-08-18T18:41:03.283Z,7.60
2022-08-18T18:43:36.978Z,7.55
2022-08-18T18:46:23.304Z,8.25
2022-08-18T18:49:03.227Z,8.57
2022-08-18T18:51:38.295Z,8.52
2022-08-18T18:54:15.785Z,8.00
2022-08-18T18:56:52.084Z,8.73
2022-08-18T18:59:38.461Z,18.80
2022-08-18T19:02:33.887Z,38.45
2022-08-18T19:05:14.532Z,20.15
2022-08-18T19:07:59.086Z,11.70
2022-08-18T19:10:34.890Z,10.70
2022-08-18T19:13:32.852Z,10.20
2022-08-18T19:16:23.452Z,9.25
2022-08-18T19:18:57.948Z,8.45
2022-08-18T19:22:03.755Z,9.20
2022-08-18T19:24:39.714Z,10.38
2022-08-18T19:27:14.259Z,11.70
2022-08-18T19:29:46.033Z,12.40
2022-08-18T19:32:19.742Z,10.98
2022-08-18T19:34:51.330Z,10.68
2022-08-18T19:37:31.235Z,10.15
2022-08-18T19:40:09.476Z,9.23
2022-08-18T19:42:49.950Z,9.15
2022-08-18T19:45:31.029Z,74.53
2022-08-18T19:48:06.634Z,28.98
2022-08-18T19:50:38.109Z,19.33
2022-08-18T19:53:26.760Z,9.77
2022-08-18T19:56:15.981Z,9.38
2022-08-18T19:59:18.417Z,9.93
2022-08-18T20:02:09.230Z,9.93
2022-08-18T20:04:51.346Z,9.95
2022-08-18T20:07:55.940Z,9.90
2022-08-18T20:10:42.194Z,10.02
2022-08-18T20:13:26.310Z,9.90
2022-08-18T20:16:14.336Z,10.10
2022-08-18T20:18:49.430Z,10.25
2022-08-18T20:21:45.368Z,27.95
2022-08-18T20:24:46.626Z,32.70
2022-08-18T20:27:22.835Z,16.70
2022-08-18T20:30:19.343Z,23.30
2022-08-18T20:33:19.357Z,11.43
2022-08-18T20:36:07.277Z,17.13
2022-08-18T20:38:38.293Z,13.25
2022-08-18T20:41:45.366Z,11.65
2022-08-18T20:44:57.268Z,10.77
2022-08-18T20:48:04.314Z,10.60
2022-08-18T20:50:48.497Z,10.18
2022-08-18T20:53:37.305Z,10.38
2022-08-18T20:56:32.112Z,10.60
2022-08-18T20:59:09.117Z,9.73
2022-08-18T21:01:39.022Z,9.85
2022-08-18T21:04:11.652Z,10.57
2022-08-18T21:06:44.682Z,9.80
2022-08-18T21:09:18.920Z,10.25
2022-08-18T21:11:49.320Z,9.80
2022-08-18T21:14:28.722Z,11.18
2022-08-18T21:16:59.836Z,27.83
2022-08-18T21:19:30.354Z,13.60
2022-08-18T21:22:04.212Z,11.02
2022-08-18T21:24:37.350Z,11.30
2022-08-18T21:27:08.324Z,11.02
2022-08-18T21:29:47.412Z,10.60
2022-08-18T21:32:21.374Z,10.88
2022-08-18T21:34:50.841Z,10.57
2022-08-18T21:37:20.404Z,19.13
2022-08-18T21:39:55.794Z,35.70
2022-08-18T21:42:28.325Z,38.58
2022-08-18T21:45:02.417Z,19.60
2022-08-18T21:47:34.324Z,13.13
2022-08-18T21:50:13.535Z,12.90
2022-08-18T21:52:53.495Z,10.32
2022-08-18T21:55:30.267Z,10.23
2022-08-18T21:58:05.357Z,52.20
2022-08-18T22:00:36.102Z,32.63
2022-08-18T22:03:24.485Z,14.65
2022-08-18T22:06:03.417Z,12.18
2022-08-18T22:08:35.235Z,10.05
2022-08-18T22:12:00.717Z,9.82
2022-08-18T22:14:53.740Z,9.43
2022-08-18T22:17:31.400Z,9.85
2022-08-18T22:20:34.650Z,9.52
2022-08-18T22:23:29.350Z,9.98
2022-08-18T22:26:08.338Z,9.95
2022-08-18T22:28:44.355Z,9.50
2022-08-18T22:31:20.576Z,9.63
2022-08-18T22:33:50.260Z,9.23
2022-08-18T22:36:23.360Z,11.73
2022-08-18T22:38:52.502Z,42.22
2022-08-18T22:41:22.396Z,35.67
2022-08-18T22:44:16.053Z,12.70
2022-08-18T22:46:44.270Z,10.75
2022-08-18T22:49:13.155Z,10.13
2022-08-18T22:51:41.208Z,74.90
2022-08-18T22:54:14.816Z,37.50
2022-08-18T22:56:53.974Z,14.93
2022-08-18T22:59:28.390Z,10.95
2022-08-18T23:01:58.207Z,9.88
2022-08-18T23:04:29.369Z,10.70
2022-08-18T23:06:57.538Z,10.13
2022-08-18T23:09:29.698Z,9.50
2022-08-18T23:12:04.617Z,9.48
2022-08-18T23:14:35.150Z,9.82
2022-08-18T23:17:05.539Z,9.18
2022-08-18T23:19:37.351Z,9.95
2022-08-18T23:22:06.400Z,9.23
2022-08-18T23:24:35.387Z,8.63
2022-08-18T23:27:05.595Z,9.20
2022-08-18T23:29:41.320Z,9.40
2022-08-18T23:32:10.411Z,8.98
2022-08-18T23:34:38.414Z,9.57
2022-08-18T23:37:09.649Z,9.00
2022-08-18T23:39:41.852Z,8.48
2022-08-18T23:42:13.410Z,9.52
2022-08-18T23:44:46.583Z,9.88
2022-08-18T23:47:16.669Z,9.70
2022-08-18T23:49:45.481Z,9.48
2022-08-18T23:52:13.447Z,9.00
2022-08-18T23:54:42.409Z,9.45
2022-08-18T23:57:14.274Z,9.57
2022-08-18T23:59:44.342Z,9.57
